sensor_id;sensor_type;location;lat;lon;timestamp;pressure;altitude;pressure_sealevel;temperature;humidity
19526;BME280;9907;42.676;26.348;2023-04-25T00:00:03;98249.75;;;13.35;93.64
19526;BME280;9907;42.676;26.348;2023-04-25T00:02:32;98243.91;;;13.32;93.68
19526;BME280;9907;42.676;26.348;2023-04-25T00:05:00;98235.38;;;13.28;94.11
19526;BME280;9907;42.676;26.348;2023-04-25T00:07:27;98234.72;;;13.26;94.15
19526;BME280;9907;42.676;26.348;2023-04-25T00:09:52;98243.47;;;13.12;96.45
19526;BME280;9907;42.676;26.348;2023-04-25T00:12:18;98234.06;;;13.16;95.29
19526;BME280;9907;42.676;26.348;2023-04-25T00:14:43;98247.16;;;13.11;95.57
19526;BME280;9907;42.676;26.348;2023-04-25T00:17:10;98235.75;;;13.01;98.03
19526;BME280;9907;42.676;26.348;2023-04-25T00:19:36;98235.75;;;13.01;97.03
19526;BME280;9907;42.676;26.348;2023-04-25T00:22:03;98230.75;;;12.98;96.57
19526;BME280;9907;42.676;26.348;2023-04-25T00:24:28;98233.56;;;13.04;96.03
19526;BME280;9907;42.676;26.348;2023-04-25T00:26:54;98233.91;;;13.01;94.29
19526;BME280;9907;42.676;26.348;2023-04-25T00:29:19;98227.41;;;13.04;94.08
19526;BME280;9907;42.676;26.348;2023-04-25T00:31:45;98228.69;;;13.16;92.95
19526;BME280;9907;42.676;26.348;2023-04-25T00:34:10;98231.25;;;13.09;94.09
19526;BME280;9907;42.676;26.348;2023-04-25T00:36:36;98220.34;;;13.03;94.04
19526;BME280;9907;42.676;26.348;2023-04-25T00:39:01;98217.66;;;13.03;93.37
19526;BME280;9907;42.676;26.348;2023-04-25T00:41:27;98215.00;;;13.03;94.06
19526;BME280;9907;42.676;26.348;2023-04-25T00:43:56;98207.94;;;13.02;93.52
19526;BME280;9907;42.676;26.348;2023-04-25T00:46:22;98201.25;;;12.98;94.03
19526;BME280;9907;42.676;26.348;2023-04-25T00:48:48;98192.22;;;12.91;95.13
19526;BME280;9907;42.676;26.348;2023-04-25T00:51:16;98195.44;;;12.86;96.52
19526;BME280;9907;42.676;26.348;2023-04-25T00:53:44;98187.56;;;12.85;97.16
19526;BME280;9907;42.676;26.348;2023-04-25T00:56:10;98188.41;;;12.85;97.16
19526;BME280;9907;42.676;26.348;2023-04-25T00:58:36;98179.22;;;12.80;97.86
19526;BME280;9907;42.676;26.348;2023-04-25T01:01:02;98177.03;;;12.75;98.07
19526;BME280;9907;42.676;26.348;2023-04-25T01:03:28;98174.53;;;12.74;98.00
19526;BME280;9907;42.676;26.348;2023-04-25T01:05:54;98177.88;;;12.67;99.10
19526;BME280;9907;42.676;26.348;2023-04-25T01:08:23;98176.09;;;12.52;100.00
19526;BME280;9907;42.676;26.348;2023-04-25T01:10:50;98174.28;;;12.44;100.00
19526;BME280;9907;42.676;26.348;2023-04-25T01:13:16;98166.53;;;12.49;100.00
19526;BME280;9907;42.676;26.348;2023-04-25T01:15:41;98161.19;;;12.49;100.00
19526;BME280;9907;42.676;26.348;2023-04-25T01:18:07;98150.50;;;12.41;100.00
19526;BME280;9907;42.676;26.348;2023-04-25T01:20:33;98147.84;;;12.09;100.00
19526;BME280;9907;42.676;26.348;2023-04-25T01:23:00;98132.47;;;12.19;100.00
19526;BME280;9907;42.676;26.348;2023-04-25T01:25:27;98131.47;;;12.12;100.00
19526;BME280;9907;42.676;26.348;2023-04-25T01:27:53;98126.97;;;12.04;100.00
19526;BME280;9907;42.676;26.348;2023-04-25T01:30:19;98137.84;;;12.11;100.00
19526;BME280;9907;42.676;26.348;2023-04-25T01:32:44;98131.47;;;12.12;100.00
19526;BME280;9907;42.676;26.348;2023-04-25T01:35:11;98126.78;;;12.14;100.00
19526;BME280;9907;42.676;26.348;2023-04-25T01:37:38;98129.13;;;12.17;100.00
19526;BME280;9907;42.676;26.348;2023-04-25T01:40:04;98121.94;;;12.09;100.00
19526;BME280;9907;42.676;26.348;2023-04-25T01:42:34;98126.44;;;12.09;99.73
19526;BME280;9907;42.676;26.348;2023-04-25T01:45:00;98127.13;;;12.03;98.80
19526;BME280;9907;42.676;26.348;2023-04-25T01:47:26;98137.84;;;12.03;100.00
19526;BME280;9907;42.676;26.348;2023-04-25T01:49:51;98143.19;;;12.03;99.61
19526;BME280;9907;42.676;26.348;2023-04-25T01:52:17;98140.16;;;12.06;98.58
19526;BME280;9907;42.676;26.348;2023-04-25T01:54:42;98141.69;;;12.00;97.73
19526;BME280;9907;42.676;26.348;2023-04-25T01:57:13;98141.66;;;12.08;98.33
19526;BME280;9907;42.676;26.348;2023-04-25T01:59:39;98137.34;;;11.99;98.18
19526;BME280;9907;42.676;26.348;2023-04-25T02:02:06;98128.31;;;12.00;98.33
19526;BME280;9907;42.676;26.348;2023-04-25T02:04:31;98128.97;;;12.02;99.53
19526;BME280;9907;42.676;26.348;2023-04-25T02:06:57;98127.13;;;12.03;99.72
19526;BME280;9907;42.676;26.348;2023-04-25T02:09:23;98129.66;;;12.04;99.11
19526;BME280;9907;42.676;26.348;2023-04-25T02:11:48;98126.47;;;12.01;98.77
19526;BME280;9907;42.676;26.348;2023-04-25T02:14:14;98120.44;;;11.99;99.47
19526;BME280;9907;42.676;26.348;2023-04-25T02:16:40;98118.94;;;11.96;99.63
19526;BME280;9907;42.676;26.348;2023-04-25T02:19:05;98123.59;;;11.94;100.00
19526;BME280;9907;42.676;26.348;2023-04-25T02:21:31;98114.59;;;11.95;100.00
19526;BME280;9907;42.676;26.348;2023-04-25T02:23:57;98112.91;;;11.94;100.00
19526;BME280;9907;42.676;26.348;2023-04-25T02:26:23;98101.34;;;11.94;100.00
19526;BME280;9907;42.676;26.348;2023-04-25T02:28:49;98094.69;;;11.90;100.00
19526;BME280;9907;42.676;26.348;2023-04-25T02:31:15;98092.69;;;11.92;100.00
19526;BME280;9907;42.676;26.348;2023-04-25T02:33:40;98087.66;;;11.89;100.00
19526;BME280;9907;42.676;26.348;2023-04-25T02:36:06;98079.78;;;11.87;100.00
19526;BME280;9907;42.676;26.348;2023-04-25T02:38:31;98075.63;;;11.85;100.00
19526;BME280;9907;42.676;26.348;2023-04-25T02:40:57;98073.59;;;11.87;100.00
19526;BME280;9907;42.676;26.348;2023-04-25T02:43:22;98072.94;;;11.85;100.00
19526;BME280;9907;42.676;26.348;2023-04-25T02:45:48;98074.13;;;11.74;100.00
19526;BME280;9907;42.676;26.348;2023-04-25T02:48:13;98080.28;;;11.58;100.00
19526;BME280;9907;42.676;26.348;2023-04-25T02:50:39;98075.41;;;11.54;100.00
19526;BME280;9907;42.676;26.348;2023-04-25T02:53:04;98085.47;;;11.60;100.00
19526;BME280;9907;42.676;26.348;2023-04-25T02:55:30;98084.47;;;11.45;100.00
19526;BME280;9907;42.676;26.348;2023-04-25T02:57:55;98091.28;;;11.39;100.00
19526;BME280;9907;42.676;26.348;2023-04-25T03:00:21;98098.31;;;11.40;100.00
19526;BME280;9907;42.676;26.348;2023-04-25T03:02:47;98098.97;;;11.42;100.00
19526;BME280;9907;42.676;26.348;2023-04-25T03:05:13;98102.84;;;11.48;100.00
19526;BME280;9907;42.676;26.348;2023-04-25T03:07:39;98105.50;;;11.48;100.00
19526;BME280;9907;42.676;26.348;2023-04-25T03:10:06;98113.38;;;11.41;100.00
19526;BME280;9907;42.676;26.348;2023-04-25T03:12:32;98106.16;;;11.34;100.00
19526;BME280;9907;42.676;26.348;2023-04-25T03:14:57;98126.22;;;11.38;100.00
19526;BME280;9907;42.676;26.348;2023-04-25T03:17:23;98125.06;;;11.40;100.00
19526;BME280;9907;42.676;26.348;2023-04-25T03:19:48;98114.72;;;11.45;100.00
19526;BME280;9907;42.676;26.348;2023-04-25T03:22:13;98113.03;;;11.52;100.00
19526;BME280;9907;42.676;26.348;2023-04-25T03:24:39;98114.19;;;11.50;100.00
19526;BME280;9907;42.676;26.348;2023-04-25T03:27:05;98108.69;;;11.43;100.00
19526;BME280;9907;42.676;26.348;2023-04-25T03:29:30;98110.34;;;11.44;100.00
19526;BME280;9907;42.676;26.348;2023-04-25T03:31:56;98106.16;;;11.50;100.00
19526;BME280;9907;42.676;26.348;2023-04-25T03:34:21;98110.03;;;11.55;100.00
19526;BME280;9907;42.676;26.348;2023-04-25T03:36:47;98104.00;;;11.53;100.00
19526;BME280;9907;42.676;26.348;2023-04-25T03:39:12;98106.34;;;11.48;100.00
19526;BME280;9907;42.676;26.348;2023-04-25T03:41:38;98113.88;;;11.53;100.00
19526;BME280;9907;42.676;26.348;2023-04-25T03:44:03;98115.72;;;11.52;100.00
19526;BME280;9907;42.676;26.348;2023-04-25T03:46:29;98122.22;;;11.42;100.00
19526;BME280;9907;42.676;26.348;2023-04-25T03:48:54;98119.38;;;11.43;100.00
19526;BME280;9907;42.676;26.348;2023-04-25T03:51:20;98129.22;;;11.43;100.00
19526;BME280;9907;42.676;26.348;2023-04-25T03:53:45;98126.22;;;11.46;100.00
19526;BME280;9907;42.676;26.348;2023-04-25T03:56:11;98119.22;;;11.45;100.00
19526;BME280;9907;42.676;26.348;2023-04-25T03:58:36;98118.03;;;11.47;100.00
19526;BME280;9907;42.676;26.348;2023-04-25T04:01:01;98119.53;;;11.50;100.00
19526;BME280;9907;42.676;26.348;2023-04-25T04:03:33;98129.09;;;11.52;100.00
19526;BME280;9907;42.676;26.348;2023-04-25T04:06:00;98129.94;;;11.53;100.00
19526;BME280;9907;42.676;26.348;2023-04-25T04:08:25;98131.44;;;11.55;100.00
19526;BME280;9907;42.676;26.348;2023-04-25T04:10:51;98126.41;;;11.60;100.00
19526;BME280;9907;42.676;26.348;2023-04-25T04:13:16;98135.44;;;11.59;100.00
19526;BME280;9907;42.676;26.348;2023-04-25T04:15:42;98134.63;;;11.59;100.00
19526;BME280;9907;42.676;26.348;2023-04-25T04:18:07;98137.44;;;11.57;100.00
19526;BME280;9907;42.676;26.348;2023-04-25T04:20:33;98144.47;;;11.58;100.00
19526;BME280;9907;42.676;26.348;2023-04-25T04:22:58;98136.78;;;11.55;100.00
19526;BME280;9907;42.676;26.348;2023-04-25T04:25:24;98139.28;;;11.49;100.00
19526;BME280;9907;42.676;26.348;2023-04-25T04:27:50;98128.41;;;11.50;100.00
19526;BME280;9907;42.676;26.348;2023-04-25T04:30:20;98130.94;;;11.52;100.00
19526;BME280;9907;42.676;26.348;2023-04-25T04:32:46;98145.78;;;11.46;100.00
19526;BME280;9907;42.676;26.348;2023-04-25T04:35:13;98138.09;;;11.43;100.00
19526;BME280;9907;42.676;26.348;2023-04-25T04:37:39;98128.59;;;11.49;99.64
19526;BME280;9907;42.676;26.348;2023-04-25T04:40:07;98142.94;;;11.48;99.45
19526;BME280;9907;42.676;26.348;2023-04-25T04:42:33;98133.25;;;11.55;99.21
19526;BME280;9907;42.676;26.348;2023-04-25T04:45:01;98138.28;;;11.58;98.51
19526;BME280;9907;42.676;26.348;2023-04-25T04:47:29;98134.44;;;11.60;98.80
19526;BME280;9907;42.676;26.348;2023-04-25T04:49:56;98131.59;;;11.62;99.24
19526;BME280;9907;42.676;26.348;2023-04-25T04:52:22;98127.25;;;11.61;97.48
19526;BME280;9907;42.676;26.348;2023-04-25T04:54:47;98115.91;;;11.67;96.88
19526;BME280;9907;42.676;26.348;2023-04-25T04:57:13;98112.44;;;11.75;95.23
19526;BME280;9907;42.676;26.348;2023-04-25T04:59:38;98113.25;;;11.91;95.16
19526;BME280;9907;42.676;26.348;2023-04-25T05:02:04;98114.25;;;12.06;93.63
19526;BME280;9907;42.676;26.348;2023-04-25T05:04:29;98107.03;;;12.23;93.39
19526;BME280;9907;42.676;26.348;2023-04-25T05:06:55;98107.84;;;12.24;91.84
19526;BME280;9907;42.676;26.348;2023-04-25T05:09:20;98108.53;;;12.26;91.58
19526;BME280;9907;42.676;26.348;2023-04-25T05:11:51;98098.97;;;12.31;91.31
19526;BME280;9907;42.676;26.348;2023-04-25T05:14:17;98095.44;;;12.31;92.84
19526;BME280;9907;42.676;26.348;2023-04-25T05:16:43;98098.94;;;12.39;92.71
19526;BME280;9907;42.676;26.348;2023-04-25T05:19:09;98089.91;;;12.48;93.56
19526;BME280;9907;42.676;26.348;2023-04-25T05:21:34;98099.22;;;12.60;92.97
19526;BME280;9907;42.676;26.348;2023-04-25T05:24:00;98089.16;;;12.71;90.87
19526;BME280;9907;42.676;26.348;2023-04-25T05:26:26;98088.78;;;12.74;90.85
19526;BME280;9907;42.676;26.348;2023-04-25T05:28:58;98090.81;;;12.72;87.35
19526;BME280;9907;42.676;26.348;2023-04-25T05:31:25;98097.00;;;12.72;87.16
19526;BME280;9907;42.676;26.348;2023-04-25T05:33:50;98089.53;;;12.90;89.28
19526;BME280;9907;42.676;26.348;2023-04-25T05:36:17;98092.00;;;13.08;86.41
19526;BME280;9907;42.676;26.348;2023-04-25T05:38:43;98088.28;;;13.17;84.85
19526;BME280;9907;42.676;26.348;2023-04-25T05:41:08;98096.91;;;13.27;86.06
19526;BME280;9907;42.676;26.348;2023-04-25T05:43:34;98093.00;;;13.38;85.52
19526;BME280;9907;42.676;26.348;2023-04-25T05:45:59;98090.66;;;13.35;83.62
19526;BME280;9907;42.676;26.348;2023-04-25T05:48:25;98086.09;;;13.43;83.18
19526;BME280;9907;42.676;26.348;2023-04-25T05:50:50;98081.22;;;13.47;82.42
19526;BME280;9907;42.676;26.348;2023-04-25T05:53:17;98089.22;;;13.55;82.97
19526;BME280;9907;42.676;26.348;2023-04-25T05:55:42;98084.84;;;13.54;82.07
19526;BME280;9907;42.676;26.348;2023-04-25T05:58:08;98086.03;;;13.51;82.99
19526;BME280;9907;42.676;26.348;2023-04-25T06:00:33;98082.16;;;13.54;82.67
19526;BME280;9907;42.676;26.348;2023-04-25T06:02:59;98077.81;;;13.53;83.83
19526;BME280;9907;42.676;26.348;2023-04-25T06:05:24;98065.91;;;13.55;83.21
19526;BME280;9907;42.676;26.348;2023-04-25T06:07:50;98068.84;;;13.60;83.30
19526;BME280;9907;42.676;26.348;2023-04-25T06:10:15;98062.44;;;13.70;82.04
19526;BME280;9907;42.676;26.348;2023-04-25T06:12:41;98066.47;;;13.65;82.43
19526;BME280;9907;42.676;26.348;2023-04-25T06:15:07;98063.06;;;13.72;83.06
19526;BME280;9907;42.676;26.348;2023-04-25T06:17:33;98060.69;;;13.77;84.34
19526;BME280;9907;42.676;26.348;2023-04-25T06:19:58;98078.94;;;13.81;84.51
19526;BME280;9907;42.676;26.348;2023-04-25T06:22:24;98074.41;;;13.82;86.08
19526;BME280;9907;42.676;26.348;2023-04-25T06:24:49;98071.16;;;13.86;86.31
19526;BME280;9907;42.676;26.348;2023-04-25T06:27:15;98068.41;;;13.94;85.49
19526;BME280;9907;42.676;26.348;2023-04-25T06:29:40;98070.19;;;14.02;85.59
19526;BME280;9907;42.676;26.348;2023-04-25T06:32:06;98069.16;;;14.03;85.92
19526;BME280;9907;42.676;26.348;2023-04-25T06:34:31;98076.69;;;14.07;87.14
19526;BME280;9907;42.676;26.348;2023-04-25T06:36:56;98073.88;;;14.01;85.25
19526;BME280;9907;42.676;26.348;2023-04-25T06:39:22;98068.34;;;14.02;84.61
19526;BME280;9907;42.676;26.348;2023-04-25T06:41:48;98073.81;;;14.09;86.21
19526;BME280;9907;42.676;26.348;2023-04-25T06:44:14;98068.81;;;14.21;85.45
19526;BME280;9907;42.676;26.348;2023-04-25T06:46:40;98081.34;;;14.28;84.17
19526;BME280;9907;42.676;26.348;2023-04-25T06:49:06;98083.31;;;14.34;84.58
19526;BME280;9907;42.676;26.348;2023-04-25T06:51:31;98085.66;;;14.37;84.58
19526;BME280;9907;42.676;26.348;2023-04-25T06:53:57;98085.53;;;14.45;81.64
19526;BME280;9907;42.676;26.348;2023-04-25T06:56:23;98077.22;;;14.55;79.97
19526;BME280;9907;42.676;26.348;2023-04-25T06:58:49;98087.28;;;14.68;79.52
19526;BME280;9907;42.676;26.348;2023-04-25T07:01:14;98084.81;;;14.81;78.67
19526;BME280;9907;42.676;26.348;2023-04-25T07:03:40;98087.50;;;14.81;77.46
19526;BME280;9907;42.676;26.348;2023-04-25T07:06:06;98075.06;;;14.80;79.60
19526;BME280;9907;42.676;26.348;2023-04-25T07:08:31;98082.03;;;14.74;79.54
19526;BME280;9907;42.676;26.348;2023-04-25T07:10:57;98084.13;;;14.79;80.35
19526;BME280;9907;42.676;26.348;2023-04-25T07:13:22;98088.97;;;14.83;80.48
19526;BME280;9907;42.676;26.348;2023-04-25T07:15:48;98087.66;;;14.94;78.09
19526;BME280;9907;42.676;26.348;2023-04-25T07:18:14;98090.25;;;15.02;77.21
19526;BME280;9907;42.676;26.348;2023-04-25T07:20:39;98087.00;;;15.06;77.39
19526;BME280;9907;42.676;26.348;2023-04-25T07:23:05;98089.69;;;15.06;77.25
19526;BME280;9907;42.676;26.348;2023-04-25T07:25:30;98082.72;;;14.97;80.10
19526;BME280;9907;42.676;26.348;2023-04-25T07:27:56;98086.91;;;15.00;77.61
19526;BME280;9907;42.676;26.348;2023-04-25T07:30:22;98087.25;;;14.97;76.48
19526;BME280;9907;42.676;26.348;2023-04-25T07:32:48;98086.16;;;15.06;79.00
19526;BME280;9907;42.676;26.348;2023-04-25T07:35:14;98086.78;;;15.08;80.07
19526;BME280;9907;42.676;26.348;2023-04-25T07:37:39;98088.47;;;15.09;80.62
19526;BME280;9907;42.676;26.348;2023-04-25T07:40:05;98090.53;;;15.07;80.46
19526;BME280;9907;42.676;26.348;2023-04-25T07:42:31;98092.81;;;15.10;80.47
19526;BME280;9907;42.676;26.348;2023-04-25T07:44:57;98085.22;;;15.14;82.12
19526;BME280;9907;42.676;26.348;2023-04-25T07:47:22;98078.88;;;15.21;84.00
19526;BME280;9907;42.676;26.348;2023-04-25T07:49:48;98076.44;;;15.26;83.17
19526;BME280;9907;42.676;26.348;2023-04-25T07:52:14;98062.25;;;15.32;80.88
19526;BME280;9907;42.676;26.348;2023-04-25T07:54:39;98066.56;;;15.48;79.73
19526;BME280;9907;42.676;26.348;2023-04-25T07:57:05;98062.16;;;15.62;78.44
19526;BME280;9907;42.676;26.348;2023-04-25T07:59:31;98053.63;;;15.58;78.79
19526;BME280;9907;42.676;26.348;2023-04-25T08:01:57;98054.78;;;15.49;79.15
19526;BME280;9907;42.676;26.348;2023-04-25T08:04:23;98052.56;;;15.38;77.31
19526;BME280;9907;42.676;26.348;2023-04-25T08:06:49;98059.06;;;15.43;76.82
19526;BME280;9907;42.676;26.348;2023-04-25T08:09:15;98045.13;;;15.54;75.55
19526;BME280;9907;42.676;26.348;2023-04-25T08:11:41;98053.56;;;15.73;74.59
19526;BME280;9907;42.676;26.348;2023-04-25T08:14:07;98047.06;;;16.16;73.10
19526;BME280;9907;42.676;26.348;2023-04-25T08:16:32;98042.16;;;16.26;65.39
19526;BME280;9907;42.676;26.348;2023-04-25T08:18:59;98045.50;;;16.56;67.29
19526;BME280;9907;42.676;26.348;2023-04-25T08:21:25;98042.09;;;16.82;65.61
19526;BME280;9907;42.676;26.348;2023-04-25T08:23:52;98043.47;;;17.12;63.34
19526;BME280;9907;42.676;26.348;2023-04-25T08:26:17;98050.78;;;17.25;62.24
19526;BME280;9907;42.676;26.348;2023-04-25T08:28:43;98055.56;;;17.29;62.40
19526;BME280;9907;42.676;26.348;2023-04-25T08:31:08;98045.63;;;17.43;63.24
19526;BME280;9907;42.676;26.348;2023-04-25T08:33:34;98046.94;;;17.60;63.63
19526;BME280;9907;42.676;26.348;2023-04-25T08:35:59;98035.50;;;17.78;62.36
19526;BME280;9907;42.676;26.348;2023-04-25T08:38:25;98028.44;;;18.23;65.06
19526;BME280;9907;42.676;26.348;2023-04-25T08:40:51;98034.47;;;18.18;60.60
19526;BME280;9907;42.676;26.348;2023-04-25T08:43:19;98022.41;;;18.27;60.93
19526;BME280;9907;42.676;26.348;2023-04-25T08:45:45;98012.84;;;18.31;59.84
19526;BME280;9907;42.676;26.348;2023-04-25T08:48:16;98019.28;;;18.30;59.79
19526;BME280;9907;42.676;26.348;2023-04-25T08:50:52;98022.78;;;18.51;59.70
19526;BME280;9907;42.676;26.348;2023-04-25T08:53:28;98012.88;;;18.89;62.15
19526;BME280;9907;42.676;26.348;2023-04-25T08:55:54;98005.47;;;19.16;60.99
19526;BME280;9907;42.676;26.348;2023-04-25T08:58:21;98012.19;;;19.07;59.89
19526;BME280;9907;42.676;26.348;2023-04-25T09:00:47;97999.75;;;19.30;59.20
19526;BME280;9907;42.676;26.348;2023-04-25T09:03:13;97995.34;;;19.42;57.93
19526;BME280;9907;42.676;26.348;2023-04-25T09:05:40;97996.25;;;19.86;57.53
19526;BME280;9907;42.676;26.348;2023-04-25T09:08:06;97993.25;;;19.44;58.21
19526;BME280;9907;42.676;26.348;2023-04-25T09:10:31;97988.78;;;19.19;58.81
19526;BME280;9907;42.676;26.348;2023-04-25T09:13:11;97994.38;;;19.62;59.13
19526;BME280;9907;42.676;26.348;2023-04-25T09:15:48;97996.91;;;19.57;57.72
19526;BME280;9907;42.676;26.348;2023-04-25T09:18:22;97979.56;;;19.89;57.41
19526;BME280;9907;42.676;26.348;2023-04-25T09:20:48;97990.84;;;20.35;58.27
19526;BME280;9907;42.676;26.348;2023-04-25T09:23:14;97989.09;;;20.41;56.50
19526;BME280;9907;42.676;26.348;2023-04-25T09:25:40;97990.31;;;20.45;55.58
19526;BME280;9907;42.676;26.348;2023-04-25T09:28:06;97991.25;;;20.32;56.51
19526;BME280;9907;42.676;26.348;2023-04-25T09:30:34;97994.97;;;20.13;56.13
19526;BME280;9907;42.676;26.348;2023-04-25T09:33:10;97982.00;;;19.97;56.14
19526;BME280;9907;42.676;26.348;2023-04-25T09:35:38;97989.50;;;19.46;57.21
19526;BME280;9907;42.676;26.348;2023-04-25T09:38:10;97997.25;;;19.67;57.77
19526;BME280;9907;42.676;26.348;2023-04-25T09:40:45;97992.09;;;20.08;57.09
19526;BME280;9907;42.676;26.348;2023-04-25T09:43:18;97990.44;;;20.07;58.28
19526;BME280;9907;42.676;26.348;2023-04-25T09:45:44;97987.16;;;19.80;57.61
19526;BME280;9907;42.676;26.348;2023-04-25T09:48:11;97982.66;;;19.68;57.03
19526;BME280;9907;42.676;26.348;2023-04-25T09:50:38;97993.22;;;19.76;59.74
19526;BME280;9907;42.676;26.348;2023-04-25T09:53:06;97988.13;;;19.86;57.27
19526;BME280;9907;42.676;26.348;2023-04-25T09:55:34;97987.13;;;19.56;57.61
19526;BME280;9907;42.676;26.348;2023-04-25T09:58:04;97975.69;;;19.54;58.22
19526;BME280;9907;42.676;26.348;2023-04-25T10:00:30;97969.69;;;19.45;57.42
19526;BME280;9907;42.676;26.348;2023-04-25T10:02:57;97974.16;;;19.26;57.35
19526;BME280;9907;42.676;26.348;2023-04-25T10:05:25;97965.59;;;19.29;58.59
19526;BME280;9907;42.676;26.348;2023-04-25T10:07:52;97962.44;;;19.39;60.46
19526;BME280;9907;42.676;26.348;2023-04-25T10:10:19;97945.78;;;19.42;58.45
19526;BME280;9907;42.676;26.348;2023-04-25T10:12:51;97951.13;;;19.49;58.09
19526;BME280;9907;42.676;26.348;2023-04-25T10:15:17;97942.91;;;19.62;59.66
19526;BME280;9907;42.676;26.348;2023-04-25T10:17:43;97942.03;;;19.68;57.85
19526;BME280;9907;42.676;26.348;2023-04-25T10:20:09;97936.47;;;19.81;58.69
19526;BME280;9907;42.676;26.348;2023-04-25T10:22:47;97928.97;;;19.83;57.78
19526;BME280;9907;42.676;26.348;2023-04-25T10:25:19;97927.59;;;19.74;58.61
19526;BME280;9907;42.676;26.348;2023-04-25T10:27:45;97930.25;;;19.56;57.51
19526;BME280;9907;42.676;26.348;2023-04-25T10:30:13;97917.09;;;19.59;59.86
19526;BME280;9907;42.676;26.348;2023-04-25T10:32:43;97923.34;;;19.60;56.57
19526;BME280;9907;42.676;26.348;2023-04-25T10:35:14;97915.06;;;19.55;58.04
19526;BME280;9907;42.676;26.348;2023-04-25T10:38:13;97914.72;;;19.44;58.23
19526;BME280;9907;42.676;26.348;2023-04-25T10:40:39;97907.44;;;19.38;57.12
19526;BME280;9907;42.676;26.348;2023-04-25T10:43:34;97908.16;;;19.27;56.19
19526;BME280;9907;42.676;26.348;2023-04-25T10:46:00;97899.91;;;19.47;58.17
19526;BME280;9907;42.676;26.348;2023-04-25T10:48:28;97895.88;;;19.56;56.87
19526;BME280;9907;42.676;26.348;2023-04-25T10:51:10;97895.56;;;19.39;56.52
19526;BME280;9907;42.676;26.348;2023-04-25T10:53:35;97896.22;;;19.35;56.51
19526;BME280;9907;42.676;26.348;2023-04-25T10:56:10;97893.53;;;19.60;56.94
19526;BME280;9907;42.676;26.348;2023-04-25T10:58:35;97892.38;;;19.74;55.86
19526;BME280;9907;42.676;26.348;2023-04-25T11:01:01;97895.97;;;19.68;56.72
19526;BME280;9907;42.676;26.348;2023-04-25T11:03:27;97898.00;;;19.48;57.40
19526;BME280;9907;42.676;26.348;2023-04-25T11:05:52;97893.34;;;19.61;58.92
19526;BME280;9907;42.676;26.348;2023-04-25T11:08:32;97895.75;;;19.44;57.79
19526;BME280;9907;42.676;26.348;2023-04-25T11:11:03;97896.81;;;19.43;57.42
19526;BME280;9907;42.676;26.348;2023-04-25T11:13:31;97896.28;;;19.28;58.70
19526;BME280;9907;42.676;26.348;2023-04-25T11:15:57;97904.06;;;19.50;57.93
19526;BME280;9907;42.676;26.348;2023-04-25T11:18:26;97898.09;;;19.66;56.92
19526;BME280;9907;42.676;26.348;2023-04-25T11:20:52;97908.56;;;19.56;57.49
19526;BME280;9907;42.676;26.348;2023-04-25T11:23:17;97912.34;;;19.55;55.85
19526;BME280;9907;42.676;26.348;2023-04-25T11:25:43;97911.47;;;19.61;55.56
19526;BME280;9907;42.676;26.348;2023-04-25T11:28:09;97905.38;;;19.65;55.20
19526;BME280;9907;42.676;26.348;2023-04-25T11:30:35;97906.09;;;19.54;56.31
19526;BME280;9907;42.676;26.348;2023-04-25T11:33:00;97894.44;;;19.54;56.63
19526;BME280;9907;42.676;26.348;2023-04-25T11:35:28;97894.00;;;19.57;58.09
19526;BME280;9907;42.676;26.348;2023-04-25T11:37:53;97897.28;;;19.59;58.51
19526;BME280;9907;42.676;26.348;2023-04-25T11:40:19;97898.03;;;19.72;57.09
19526;BME280;9907;42.676;26.348;2023-04-25T11:42:46;97896.16;;;19.91;57.80
19526;BME280;9907;42.676;26.348;2023-04-25T11:45:13;97892.38;;;19.92;57.83
19526;BME280;9907;42.676;26.348;2023-04-25T11:47:39;97873.97;;;20.01;56.05
19526;BME280;9907;42.676;26.348;2023-04-25T11:50:07;97869.16;;;20.21;57.06
19526;BME280;9907;42.676;26.348;2023-04-25T11:52:39;97865.38;;;20.22;56.32
19526;BME280;9907;42.676;26.348;2023-04-25T11:55:10;97856.03;;;20.18;55.15
19526;BME280;9907;42.676;26.348;2023-04-25T11:57:38;97852.66;;;20.22;55.15
19526;BME280;9907;42.676;26.348;2023-04-25T12:00:12;97849.66;;;20.30;54.67
19526;BME280;9907;42.676;26.348;2023-04-25T12:02:45;97845.34;;;20.41;55.10
19526;BME280;9907;42.676;26.348;2023-04-25T12:05:12;97838.63;;;20.44;54.06
19526;BME280;9907;42.676;26.348;2023-04-25T12:07:38;97835.81;;;20.38;53.61
19526;BME280;9907;42.676;26.348;2023-04-25T12:10:11;97830.91;;;20.47;53.82
19526;BME280;9907;42.676;26.348;2023-04-25T12:12:37;97849.88;;;20.29;53.36
19526;BME280;9907;42.676;26.348;2023-04-25T12:15:11;97841.31;;;19.28;52.09
19526;BME280;9907;42.676;26.348;2023-04-25T12:17:41;97845.75;;;18.91;52.70
19526;BME280;9907;42.676;26.348;2023-04-25T12:20:12;97849.41;;;19.03;52.79
19526;BME280;9907;42.676;26.348;2023-04-25T12:22:37;97848.00;;;18.69;51.49
19526;BME280;9907;42.676;26.348;2023-04-25T12:25:04;97853.69;;;18.55;51.95
19526;BME280;9907;42.676;26.348;2023-04-25T12:27:31;97839.34;;;18.47;52.86
19526;BME280;9907;42.676;26.348;2023-04-25T12:29:57;97844.75;;;18.47;53.02
19526;BME280;9907;42.676;26.348;2023-04-25T12:32:24;97835.38;;;18.57;52.39
19526;BME280;9907;42.676;26.348;2023-04-25T12:34:50;97833.94;;;18.54;52.74
19526;BME280;9907;42.676;26.348;2023-04-25T12:37:15;97833.88;;;18.61;53.08
19526;BME280;9907;42.676;26.348;2023-04-25T12:39:41;97837.44;;;18.61;53.33
19526;BME280;9907;42.676;26.348;2023-04-25T12:42:06;97828.09;;;18.51;53.09
19526;BME280;9907;42.676;26.348;2023-04-25T12:44:38;97831.25;;;18.47;53.53
19526;BME280;9907;42.676;26.348;2023-04-25T12:47:04;97828.31;;;18.49;53.58
19526;BME280;9907;42.676;26.348;2023-04-25T12:49:30;97826.44;;;18.49;53.98
19526;BME280;9907;42.676;26.348;2023-04-25T12:51:56;97824.81;;;18.42;53.63
19526;BME280;9907;42.676;26.348;2023-04-25T12:54:21;97820.41;;;18.47;53.51